Time;durP1;ratioP1;P1;durP2;ratioP2;P2;SDS_P1;SDS_P2;PMS_P1;PMS_P2;Temp;Humidity;BMP_temperature;BMP_pressure;BME280_temperature;BME280_humidity;BME280_pressure;Samples;Min_cycle;Max_cycle;Signal;HPM_P1;HPM_P2
2023/06/01 00:00:28;;;;;;;;;;;;;;;17.46;63.60;100173.72;5065195;28;19912;-65
2023/06/01 00:02:53;;;;;;;;;;;;;;;17.44;63.27;100175.63;5071299;28;19912;-65
2023/06/01 00:05:18;;;;;;;;;;;;;;;17.43;63.24;100173.88;5054470;28;20471;-65
2023/06/01 00:07:43;;;;;;;;;;;;;;;17.40;64.05;100174.06;5052008;28;20008;-65
2023/06/01 00:10:09;;;;;;;;;;;;;;;17.39;64.70;100177.72;5051729;28;19912;-65
2023/06/01 00:12:34;;;;;;;;;;;;;;;17.36;64.67;100167.13;5052963;28;19962;-65
2023/06/01 00:15:00;;;;;;;;;;;;;;;17.30;64.96;100167.47;5052753;28;19917;-65
2023/06/01 00:17:25;;;;;;;;;;;;;;;17.29;64.50;100179.19;5050090;28;20373;-65
2023/06/01 00:19:52;;;;;;;;;;;;;;;17.33;64.08;100169.13;5052726;28;19939;-64
2023/06/01 00:22:18;;;;;;;;;;;;;;;17.38;63.59;100178.66;5051871;28;19971;-65
2023/06/01 00:24:43;;;;;;;;;;;;;;;17.42;62.69;100166.78;5053230;28;19917;-65
2023/06/01 00:27:08;;;;;;;;;;;;;;;17.43;63.16;100173.03;5053205;28;19912;-65
2023/06/01 00:29:34;;;;;;;;;;;;;;;17.43;63.02;100173.03;5052204;28;19917;-66
2023/06/01 00:31:59;;;;;;;;;;;;;;;17.43;62.60;100171.19;5052674;28;19958;-65
2023/06/01 00:34:24;;;;;;;;;;;;;;;17.45;61.78;100172.00;5052709;28;19942;-65
2023/06/01 00:36:50;;;;;;;;;;;;;;;17.47;61.30;100169.22;5051871;28;19920;-65
2023/06/01 00:39:15;;;;;;;;;;;;;;;17.46;60.48;100162.97;5050538;28;19919;-65
2023/06/01 00:41:41;;;;;;;;;;;;;;;17.47;60.92;100164.72;5051342;28;19923;-65
2023/06/01 00:44:06;;;;;;;;;;;;;;;17.47;61.14;100164.72;5049675;28;19913;-65
2023/06/01 00:46:31;;;;;;;;;;;;;;;17.43;61.64;100162.28;5051166;28;20262;-65
2023/06/01 00:48:57;;;;;;;;;;;;;;;17.35;61.81;100160.00;5051809;28;19913;-65
2023/06/01 00:51:23;;;;;;;;;;;;;;;17.30;62.33;100158.56;5050819;28;19925;-64
2023/06/01 00:53:48;;;;;;;;;;;;;;;17.25;62.33;100153.41;5051310;28;19925;-65
2023/06/01 00:56:14;;;;;;;;;;;;;;;17.20;62.47;100158.19;5050458;28;19919;-65
2023/06/01 00:58:40;;;;;;;;;;;;;;;17.13;63.31;100156.84;5051104;28;20394;-65
2023/06/01 01:01:05;;;;;;;;;;;;;;;17.06;63.97;100150.94;5051305;28;19908;-65
2023/06/01 01:03:31;;;;;;;;;;;;;;;16.99;63.94;100156.72;5038052;28;19920;-65
2023/06/01 01:06:11;;;;;;;;;;;;;;;16.91;62.78;100153.63;5069696;28;19912;-65
2023/06/01 01:08:40;;;;;;;;;;;;;;;16.87;62.97;100158.28;5071331;28;19920;-66
2023/06/01 01:11:32;;;;;;;;;;;;;;;16.83;63.39;100150.50;5067970;28;19916;-66
2023/06/01 01:14:14;;;;;;;;;;;;;;;16.79;64.08;100157.84;5048833;28;20680;-66
2023/06/01 01:16:45;;;;;;;;;;;;;;;16.73;64.39;100154.63;5055547;28;19916;-66
2023/06/01 01:19:21;;;;;;;;;;;;;;;16.68;64.86;100145.97;5071918;28;19916;-66
2023/06/01 01:21:50;;;;;;;;;;;;;;;16.64;65.57;100144.38;5070341;28;20295;-66
2023/06/01 01:24:34;;;;;;;;;;;;;;;16.61;66.21;100152.63;5055295;28;20246;-67
2023/06/01 01:27:18;;;;;;;;;;;;;;;16.56;66.76;100152.00;5070159;28;20342;-66
2023/06/01 01:29:45;;;;;;;;;;;;;;;16.52;67.68;100150.44;5070662;28;19916;-66
2023/06/01 01:32:11;;;;;;;;;;;;;;;16.45;67.95;100154.38;5070153;28;19995;-66
2023/06/01 01:34:37;;;;;;;;;;;;;;;16.41;68.42;100148.31;5071142;28;20023;-65
2023/06/01 01:37:03;;;;;;;;;;;;;;;16.39;68.01;100149.34;5072476;28;19916;-66
2023/06/01 01:39:28;;;;;;;;;;;;;;;16.38;68.39;100148.47;5073735;28;19913;-66
2023/06/01 01:41:53;;;;;;;;;;;;;;;16.37;68.26;100152.13;5072727;28;20011;-65
2023/06/01 01:44:19;;;;;;;;;;;;;;;16.36;68.40;100149.53;5071837;28;19920;-65
2023/06/01 01:47:12;;;;;;;;;;;;;;;16.32;68.20;100145.25;5072321;28;19981;-66
2023/06/01 01:49:46;;;;;;;;;;;;;;;16.35;67.74;100143.28;5071178;28;19920;-65
2023/06/01 01:52:17;;;;;;;;;;;;;;;16.41;67.18;100150.13;5072308;28;20368;-66
2023/06/01 01:54:44;;;;;;;;;;;;;;;16.37;67.32;100153.94;5056418;28;19916;-66
2023/06/01 01:57:12;;;;;;;;;;;;;;;16.33;67.16;100144.28;5072153;28;19912;-66
2023/06/01 01:59:37;;;;;;;;;;;;;;;16.27;68.02;100145.50;5071221;28;20329;-66
2023/06/01 02:02:03;;;;;;;;;;;;;;;16.23;68.82;100143.06;5071939;28;19916;-66
2023/06/01 02:04:28;;;;;;;;;;;;;;;16.18;68.76;100145.09;5071675;28;20300;-67
2023/06/01 02:06:53;;;;;;;;;;;;;;;16.12;68.80;100151.69;5070434;28;20336;-66
2023/06/01 02:09:19;;;;;;;;;;;;;;;16.06;69.98;100140.41;5071637;28;19912;-66
2023/06/01 02:11:44;;;;;;;;;;;;;;;16.05;69.91;100135.97;5065319;28;19999;-65
2023/06/01 02:14:10;;;;;;;;;;;;;;;16.04;70.28;100142.31;5071471;28;19922;-66
2023/06/01 02:16:35;;;;;;;;;;;;;;;16.04;71.03;100142.31;5070885;28;19914;-67
2023/06/01 02:19:02;;;;;;;;;;;;;;;16.01;71.22;100137.09;5068446;28;20249;-67
2023/06/01 02:21:27;;;;;;;;;;;;;;;16.02;72.21;100138.81;5069411;28;19942;-66
2023/06/01 02:23:53;;;;;;;;;;;;;;;16.01;73.40;100142.47;5069028;28;19916;-67
2023/06/01 02:26:18;;;;;;;;;;;;;;;15.98;72.67;100132.75;5069396;28;19920;-65
2023/06/01 02:28:43;;;;;;;;;;;;;;;15.94;73.96;100128.50;5068434;28;19916;-66
2023/06/01 02:31:09;;;;;;;;;;;;;;;15.96;73.89;100133.78;5069452;28;19912;-67
2023/06/01 02:33:35;;;;;;;;;;;;;;;15.98;74.79;100131.91;5069020;28;20579;-67
2023/06/01 02:36:00;;;;;;;;;;;;;;;15.96;74.75;100131.13;5069263;28;19920;-67
2023/06/01 02:38:26;;;;;;;;;;;;;;;15.98;75.05;100132.75;5067621;28;19921;-67
2023/06/01 02:40:51;;;;;;;;;;;;;;;15.95;74.01;100132.91;5069162;28;20717;-67
2023/06/01 02:43:16;;;;;;;;;;;;;;;15.95;73.33;100127.56;5067424;28;19912;-67
2023/06/01 02:45:41;;;;;;;;;;;;;;;15.98;74.16;100137.28;5068649;28;19919;-67
2023/06/01 02:48:07;;;;;;;;;;;;;;;15.97;74.79;100130.16;5068662;28;20377;-67
2023/06/01 02:50:32;;;;;;;;;;;;;;;15.95;74.84;100134.75;5068580;28;19927;-67
2023/06/01 02:52:57;;;;;;;;;;;;;;;15.93;75.13;100133.97;5070616;28;19957;-68
2023/06/01 02:55:23;;;;;;;;;;;;;;;15.91;74.00;100141.22;5069145;28;19923;-67
2023/06/01 02:57:48;;;;;;;;;;;;;;;15.90;75.05;100136.81;5069491;28;19912;-67
2023/06/01 03:00:17;;;;;;;;;;;;;;;15.91;74.26;100136.72;5070035;28;19958;-66
2023/06/01 03:02:43;;;;;;;;;;;;;;;15.95;74.60;100137.44;5071237;28;20000;-67
2023/06/01 03:05:08;;;;;;;;;;;;;;;15.91;73.81;100142.09;5072096;28;19921;-67
2023/06/01 03:07:34;;;;;;;;;;;;;;;15.92;74.10;100138.44;5067952;28;19923;-67
2023/06/01 03:09:59;;;;;;;;;;;;;;;15.92;74.14;100141.13;5072248;28;19912;-67
2023/06/01 03:12:25;;;;;;;;;;;;;;;15.92;74.33;100140.25;5071956;28;19912;-68
2023/06/01 03:14:50;;;;;;;;;;;;;;;15.92;73.86;100134.88;5071185;28;19916;-67
2023/06/01 03:17:15;;;;;;;;;;;;;;;15.94;74.84;100135.69;5071974;28;19912;-68
2023/06/01 03:19:41;;;;;;;;;;;;;;;15.95;74.14;100132.06;5072107;28;20006;-67
2023/06/01 03:22:06;;;;;;;;;;;;;;;15.92;74.33;100142.94;5069165;28;19936;-67
2023/06/01 03:24:32;;;;;;;;;;;;;;;15.89;74.08;100138.63;5071518;28;20631;-67
2023/06/01 03:26:57;;;;;;;;;;;;;;;15.88;73.91;100146.75;5072204;28;19912;-66
2023/06/01 03:29:23;;;;;;;;;;;;;;;15.88;74.42;100139.53;5072897;28;19916;-67
2023/06/01 03:31:48;;;;;;;;;;;;;;;15.87;74.82;100145.00;5072255;28;20003;-67
2023/06/01 03:34:13;;;;;;;;;;;;;;;15.88;74.22;100152.13;5072365;28;20291;-67
2023/06/01 03:36:39;;;;;;;;;;;;;;;15.87;75.40;100153.03;5070778;28;20542;-67
2023/06/01 03:39:08;;;;;;;;;;;;;;;15.87;74.79;100147.69;5069329;28;19916;-67
2023/06/01 03:41:34;;;;;;;;;;;;;;;15.88;75.05;100152.97;5070716;28;19912;-67
2023/06/01 03:43:59;;;;;;;;;;;;;;;15.89;75.05;100148.47;5071765;28;19920;-66
2023/06/01 03:46:25;;;;;;;;;;;;;;;15.89;74.79;100151.16;5072208;28;19936;-67
2023/06/01 03:48:51;;;;;;;;;;;;;;;15.90;74.48;100150.22;5071822;28;19916;-66
2023/06/01 03:51:16;;;;;;;;;;;;;;;15.92;74.94;100151.88;5072016;28;20280;-65
2023/06/01 03:53:42;;;;;;;;;;;;;;;15.91;74.65;100154.63;5070777;28;19909;-66
2023/06/01 03:56:07;;;;;;;;;;;;;;;15.91;74.88;100160.00;5051269;28;19919;-67
2023/06/01 03:58:32;;;;;;;;;;;;;;;15.90;75.29;100163.63;5070299;28;19916;-67
2023/06/01 04:00:58;;;;;;;;;;;;;;;15.88;75.50;100165.53;5072520;28;19912;-67
2023/06/01 04:03:25;;;;;;;;;;;;;;;15.88;75.24;100168.22;5072185;28;20371;-66
2023/06/01 04:05:51;;;;;;;;;;;;;;;15.91;74.57;100162.69;5069886;28;20351;-66
2023/06/01 04:08:17;;;;;;;;;;;;;;;15.95;74.90;100166.94;5070714;28;19981;-66
2023/06/01 04:10:42;;;;;;;;;;;;;;;15.97;74.98;100165.91;5057470;28;20364;-66
2023/06/01 04:13:07;;;;;;;;;;;;;;;15.99;74.69;100169.38;5071463;28;19924;-67
2023/06/01 04:15:33;;;;;;;;;;;;;;;16.02;74.40;100165.66;5071964;28;19928;-66
2023/06/01 04:17:58;;;;;;;;;;;;;;;16.04;75.00;100161.97;5071886;28;20287;-66
2023/06/01 04:20:23;;;;;;;;;;;;;;;16.13;74.43;100171.34;5070657;28;19920;-67
2023/06/01 04:22:48;;;;;;;;;;;;;;;16.17;74.25;100170.22;5071625;28;19912;-67
2023/06/01 04:25:18;;;;;;;;;;;;;;;16.26;75.34;100177.81;5071737;28;19912;-66
2023/06/01 04:27:45;;;;;;;;;;;;;;;16.30;75.64;100172.19;5071623;28;19917;-67
2023/06/01 04:30:10;;;;;;;;;;;;;;;16.39;74.79;100178.88;5070072;28;20372;-67
2023/06/01 04:32:37;;;;;;;;;;;;;;;16.46;74.37;100177.63;5071534;28;19923;-66
2023/06/01 04:35:05;;;;;;;;;;;;;;;16.52;75.17;100183.53;5070611;28;19912;-67
2023/06/01 04:37:31;;;;;;;;;;;;;;;16.58;75.24;100176.97;5071529;28;19916;-67
2023/06/01 04:39:57;;;;;;;;;;;;;;;16.64;74.79;100180.19;5071287;28;20014;-67
2023/06/01 04:42:22;;;;;;;;;;;;;;;16.70;75.23;100187.03;5070111;28;20004;-66
2023/06/01 04:44:49;;;;;;;;;;;;;;;16.76;75.18;100175.94;5070623;28;19923;-67
2023/06/01 04:47:16;;;;;;;;;;;;;;;16.84;74.90;100179.09;5069611;28;19912;-67
2023/06/01 04:49:42;;;;;;;;;;;;;;;16.91;74.58;100177.78;5070119;28;20019;-67
2023/06/01 04:52:09;;;;;;;;;;;;;;;16.97;74.36;100181.00;5070573;28;19954;-66
2023/06/01 04:54:35;;;;;;;;;;;;;;;17.09;74.46;100176.75;5070415;28;19999;-67
2023/06/01 04:57:06;;;;;;;;;;;;;;;17.17;73.79;100187.94;5069205;28;19996;-67
2023/06/01 04:59:31;;;;;;;;;;;;;;;17.28;74.27;100190.88;5070471;28;19915;-67
2023/06/01 05:01:56;;;;;;;;;;;;;;;17.37;72.95;100185.00;5069939;28;19962;-67
2023/06/01 05:04:22;;;;;;;;;;;;;;;17.45;73.08;100182.75;5070450;28;20016;-67
2023/06/01 05:06:47;;;;;;;;;;;;;;;17.55;73.30;100186.66;5070013;28;19912;-67
2023/06/01 05:09:13;;;;;;;;;;;;;;;17.60;72.52;100184.56;5070569;28;20322;-68
2023/06/01 05:11:38;;;;;;;;;;;;;;;17.68;72.83;100184.97;5070653;28;19912;-67
2023/06/01 05:14:03;;;;;;;;;;;;;;;17.86;72.62;100186.56;5066530;28;19978;-67
2023/06/01 05:16:28;;;;;;;;;;;;;;;18.13;72.22;100181.34;5070113;28;19956;-67
2023/06/01 05:18:55;;;;;;;;;;;;;;;18.20;71.51;100186.25;5070110;28;19974;-68
2023/06/01 05:21:21;;;;;;;;;;;;;;;18.31;70.85;100185.63;5065981;28;19923;-68
2023/06/01 05:23:46;;;;;;;;;;;;;;;18.42;71.00;100187.69;5070334;28;20002;-68
2023/06/01 05:26:12;;;;;;;;;;;;;;;18.49;70.58;100189.03;5068893;28;19908;-67
2023/06/01 05:28:37;;;;;;;;;;;;;;;18.64;70.53;100193.47;5067233;28;19916;-67
2023/06/01 05:31:02;;;;;;;;;;;;;;;18.74;69.87;100190.09;5063163;28;19959;-68
2023/06/01 05:33:28;;;;;;;;;;;;;;;18.80;69.54;100191.53;5066312;28;19921;-66
2023/06/01 05:35:53;;;;;;;;;;;;;;;18.95;68.87;100188.75;5060585;28;20716;-67
2023/06/01 05:38:18;;;;;;;;;;;;;;;19.08;68.38;100178.03;5064616;28;19916;-67
2023/06/01 05:40:44;;;;;;;;;;;;;;;19.15;67.48;100182.94;5061340;28;19923;-67
2023/06/01 05:43:10;;;;;;;;;;;;;;;19.35;68.48;100185.25;5064520;28;19919;-67
2023/06/01 05:45:35;;;;;;;;;;;;;;;19.49;66.53;100184.28;5061539;28;19923;-67
2023/06/01 05:48:00;;;;;;;;;;;;;;;19.64;66.57;100185.97;5066763;28;19912;-67
2023/06/01 05:50:25;;;;;;;;;;;;;;;19.71;64.66;100184.63;5062793;28;20016;-67
2023/06/01 05:52:51;;;;;;;;;;;;;;;19.73;63.65;100171.88;5052476;28;19916;-61
2023/06/01 05:55:16;;;;;;;;;;;;;;;19.89;64.00;100177.97;5048303;28;19916;-62
2023/06/01 05:57:41;;;;;;;;;;;;;;;20.06;64.05;100184.91;5043356;28;19912;-63
2023/06/01 06:00:12;;;;;;;;;;;;;;;20.24;63.34;100183.69;5051846;28;19916;-62
2023/06/01 06:02:38;;;;;;;;;;;;;;;20.32;61.24;100186.72;5049467;28;19916;-62
2023/06/01 06:05:03;;;;;;;;;;;;;;;20.41;61.30;100181.53;5053954;28;19994;-62
2023/06/01 06:07:29;;;;;;;;;;;;;;;20.55;59.40;100188.66;5047471;28;19913;-63
2023/06/01 06:09:54;;;;;;;;;;;;;;;20.63;59.14;100183.56;5052621;28;19927;-61
2023/06/01 06:12:20;;;;;;;;;;;;;;;20.83;59.00;100178.50;5063384;28;19919;-62
2023/06/01 06:14:45;;;;;;;;;;;;;;;20.97;58.03;100179.34;5065637;28;20510;-61
2023/06/01 06:17:11;;;;;;;;;;;;;;;21.08;57.42;100182.16;5059126;28;19955;-61
2023/06/01 06:19:36;;;;;;;;;;;;;;;21.30;57.37;100176.91;5055614;28;19912;-62
2023/06/01 06:22:01;;;;;;;;;;;;;;;21.44;56.50;100179.44;5067427;28;20383;-61
2023/06/01 06:24:27;;;;;;;;;;;;;;;21.63;57.11;100177.09;5067638;28;19913;-62
2023/06/01 06:26:52;;;;;;;;;;;;;;;21.85;55.75;100179.91;5067328;28;19916;-61
2023/06/01 06:29:17;;;;;;;;;;;;;;;22.00;55.14;100178.75;5066754;28;19919;-62
2023/06/01 06:31:43;;;;;;;;;;;;;;;22.15;53.00;100188.41;5065879;28;19912;-61
2023/06/01 06:34:08;;;;;;;;;;;;;;;22.21;53.91;100185.22;5067260;28;19912;-62
2023/06/01 06:36:33;;;;;;;;;;;;;;;22.38;53.14;100184.78;5063815;28;19920;-61
2023/06/01 06:38:59;;;;;;;;;;;;;;;22.40;52.21;100187.38;5070537;28;20395;-61
2023/06/01 06:41:24;;;;;;;;;;;;;;;22.50;51.06;100191.09;5051886;28;20255;-61
2023/06/01 06:43:50;;;;;;;;;;;;;;;22.60;50.32;100195.69;5071282;28;20046;-62
2023/06/01 06:46:15;;;;;;;;;;;;;;;22.62;49.42;100203.72;5059666;28;19917;-62
2023/06/01 06:48:40;;;;;;;;;;;;;;;22.60;49.70;100200.25;5055329;28;19924;-62
2023/06/01 06:51:05;;;;;;;;;;;;;;;22.71;50.17;100200.25;5066934;28;19921;-62
2023/06/01 06:53:31;;;;;;;;;;;;;;;22.91;49.94;100200.41;5060988;28;19939;-62
2023/06/01 06:55:56;;;;;;;;;;;;;;;22.97;48.82;100199.91;5059115;28;20042;-62
2023/06/01 06:58:22;;;;;;;;;;;;;;;23.13;49.20;100194.97;5058748;28;19917;-61
2023/06/01 07:00:47;;;;;;;;;;;;;;;23.25;48.24;100209.38;5070187;28;20002;-62
2023/06/01 07:03:13;;;;;;;;;;;;;;;23.43;49.24;100203.34;5070990;28;19916;-62
2023/06/01 07:05:38;;;;;;;;;;;;;;;23.70;48.33;100205.63;5067935;28;20391;-62
2023/06/01 07:08:04;;;;;;;;;;;;;;;23.60;46.44;100199.25;5055847;28;19916;-62
2023/06/01 07:10:29;;;;;;;;;;;;;;;23.83;47.96;100210.88;5069544;28;19924;-62
2023/06/01 07:12:54;;;;;;;;;;;;;;;24.09;48.84;100213.16;5070996;28;19924;-62
2023/06/01 07:15:21;;;;;;;;;;;;;;;24.20;46.79;100213.09;5069544;28;19923;-63
2023/06/01 07:17:46;;;;;;;;;;;;;;;24.54;47.42;100211.06;5057254;28;19919;-61
2023/06/01 07:20:11;;;;;;;;;;;;;;;24.73;45.25;100219.38;5050403;28;19909;-63
2023/06/01 07:22:37;;;;;;;;;;;;;;;24.78;44.65;100214.41;5064249;28;19919;-62
2023/06/01 07:25:03;;;;;;;;;;;;;;;25.12;45.48;100210.44;5065726;28;19915;-62
2023/06/01 07:27:28;;;;;;;;;;;;;;;25.40;45.45;100203.38;5068000;28;19916;-62
2023/06/01 07:29:55;;;;;;;;;;;;;;;25.77;43.90;100208.03;5070661;28;20292;-62
2023/06/01 07:32:25;;;;;;;;;;;;;;;26.04;43.90;100203.78;5072143;28;19908;-63
2023/06/01 07:34:50;;;;;;;;;;;;;;;26.34;43.62;100206.38;5065844;28;19916;-61
2023/06/01 07:37:15;;;;;;;;;;;;;;;26.55;43.93;100204.34;5072453;28;19996;-63
2023/06/01 07:39:41;;;;;;;;;;;;;;;26.79;43.27;100207.44;5072704;28;20271;-62
2023/06/01 07:42:07;;;;;;;;;;;;;;;26.96;41.85;100209.41;5071464;28;19970;-62
2023/06/01 07:44:32;;;;;;;;;;;;;;;27.06;42.03;100204.78;5068322;28;19920;-63
2023/06/01 07:46:58;;;;;;;;;;;;;;;27.41;42.33;100198.63;5058829;28;19922;-62
2023/06/01 07:49:23;;;;;;;;;;;;;;;27.61;40.82;100203.81;5057723;28;19986;-62
2023/06/01 07:51:51;;;;;;;;;;;;;;;27.94;41.00;100203.19;5065246;28;19912;-62
2023/06/01 07:54:17;;;;;;;;;;;;;;;27.97;41.08;100202.03;5065040;28;20288;-62
2023/06/01 07:56:42;;;;;;;;;;;;;;;28.25;40.31;100204.50;5059559;28;19920;-61
2023/06/01 07:59:07;;;;;;;;;;;;;;;28.41;39.59;100207.41;5070427;28;19916;-62
2023/06/01 08:01:33;;;;;;;;;;;;;;;28.67;40.60;100201.97;5069322;28;19916;-62
2023/06/01 08:03:59;;;;;;;;;;;;;;;28.76;39.77;100197.41;5071132;28;19920;-61
2023/06/01 08:06:25;;;;;;;;;;;;;;;28.91;38.76;100196.66;5070415;28;20002;-62
2023/06/01 08:08:51;;;;;;;;;;;;;;;29.08;38.62;100198.50;5071148;28;19919;-63
2023/06/01 08:11:16;;;;;;;;;;;;;;;29.18;38.65;100201.09;5070861;28;19917;-62
2023/06/01 08:13:41;;;;;;;;;;;;;;;29.46;39.38;100197.13;5069458;28;19923;-62
2023/06/01 08:16:07;;;;;;;;;;;;;;;29.59;40.56;100200.25;5070618;28;20140;-62
2023/06/01 08:18:32;;;;;;;;;;;;;;;29.69;37.54;100190.03;5069922;28;19973;-62
2023/06/01 08:21:00;;;;;;;;;;;;;;;29.85;37.31;100189.22;5070845;28;19916;-61
2023/06/01 08:23:25;;;;;;;;;;;;;;;30.05;37.07;100190.63;5070740;28;20302;-61
2023/06/01 08:25:50;;;;;;;;;;;;;;;29.84;36.00;100192.97;5069717;28;20007;-62
2023/06/01 08:28:16;;;;;;;;;;;;;;;30.12;36.76;100191.66;5070347;28;20272;-62
2023/06/01 08:30:41;;;;;;;;;;;;;;;30.16;35.46;100188.41;5069764;28;19917;-62
2023/06/01 08:33:06;;;;;;;;;;;;;;;30.34;35.28;100186.41;5070404;28;19920;-61
2023/06/01 08:35:33;;;;;;;;;;;;;;;30.31;35.52;100185.88;5071077;28;19995;-62
2023/06/01 08:37:59;;;;;;;;;;;;;;;30.46;34.19;100181.41;5070035;28;20337;-62
2023/06/01 08:40:25;;;;;;;;;;;;;;;30.27;34.82;100187.25;5069692;28;19923;-61
2023/06/01 08:43:05;;;;;;;;;;;;;;;30.11;35.52;100196.31;5068143;28;19912;-62
2023/06/01 08:45:31;;;;;;;;;;;;;;;30.26;35.46;100189.16;5061616;28;19955;-62
2023/06/01 08:47:58;;;;;;;;;;;;;;;30.64;36.45;100177.44;5069066;28;19962;-62
2023/06/01 08:50:23;;;;;;;;;;;;;;;30.68;34.21;100189.78;5070187;28;19977;-62
2023/06/01 08:52:52;;;;;;;;;;;;;;;30.74;33.38;100180.00;5069412;28;20003;-62
2023/06/01 08:55:18;;;;;;;;;;;;;;;31.10;34.87;100177.72;5069091;28;19951;-62
2023/06/01 08:57:43;;;;;;;;;;;;;;;31.20;32.91;100184.72;5050035;28;19948;-62
2023/06/01 09:00:13;;;;;;;;;;;;;;;31.36;33.99;100178.31;5066171;28;20002;-62
2023/06/01 09:02:38;;;;;;;;;;;;;;;31.82;33.88;100177.38;5069877;28;20310;-62
2023/06/01 09:05:04;;;;;;;;;;;;;;;31.58;32.74;100177.53;5064227;28;19925;-61
2023/06/01 09:07:31;;;;;;;;;;;;;;;31.42;33.82;100177.59;5059651;28;20377;-62
2023/06/01 09:09:56;;;;;;;;;;;;;;;31.61;33.43;100160.66;5069188;28;19912;-62
2023/06/01 09:12:27;;;;;;;;;;;;;;;31.77;33.03;100166.94;5068129;28;19916;-62
2023/06/01 09:15:12;;;;;;;;;;;;;;;31.82;33.25;100169.13;5068780;28;19977;-62
2023/06/01 09:17:39;;;;;;;;;;;;;;;32.05;32.72;100170.91;5068113;28;20007;-62
2023/06/01 09:20:05;;;;;;;;;;;;;;;32.10;32.61;100162.09;5067344;28;20007;-62
2023/06/01 09:22:41;;;;;;;;;;;;;;;32.16;31.94;100163.25;5057704;28;19919;-62
2023/06/01 09:25:07;;;;;;;;;;;;;;;32.28;33.43;100161.75;5056907;28;19920;-62
2023/06/01 09:27:45;;;;;;;;;;;;;;;32.24;31.07;100157.69;5064118;28;19915;-62
2023/06/01 09:30:11;;;;;;;;;;;;;;;32.30;33.08;100163.31;5049436;28;19921;-62
2023/06/01 09:32:36;;;;;;;;;;;;;;;32.34;32.82;100158.28;5057815;28;19912;-62
2023/06/01 09:35:02;;;;;;;;;;;;;;;32.34;32.71;100148.09;5062443;28;19961;-63
2023/06/01 09:37:28;;;;;;;;;;;;;;;32.30;32.49;100152.28;5068642;28;19923;-62
2023/06/01 09:39:53;;;;;;;;;;;;;;;32.48;31.81;100155.59;5066600;28;19913;-62
2023/06/01 09:42:30;;;;;;;;;;;;;;;32.25;32.12;100149.22;5054146;28;19916;-62
2023/06/01 09:45:13;;;;;;;;;;;;;;;32.27;32.21;100151.81;5060404;28;20399;-62
2023/06/01 09:47:38;;;;;;;;;;;;;;;32.69;32.71;100130.06;5050158;28;20026;-62
2023/06/01 09:50:03;;;;;;;;;;;;;;;32.81;31.98;100140.44;5065464;28;20009;-61
2023/06/01 09:52:29;;;;;;;;;;;;;;;32.83;31.21;100135.63;5069425;28;19913;-62
2023/06/01 09:54:58;;;;;;;;;;;;;;;33.01;30.74;100132.50;5066058;28;19920;-62
2023/06/01 09:57:25;;;;;;;;;;;;;;;33.18;32.94;100134.84;5050094;28;19982;-63
2023/06/01 09:59:50;;;;;;;;;;;;;;;33.02;31.92;100132.31;5049940;28;20479;-62
2023/06/01 10:02:16;;;;;;;;;;;;;;;33.13;31.22;100130.97;5060666;28;19916;-63
2023/06/01 10:04:45;;;;;;;;;;;;;;;33.41;31.87;100121.00;5059739;28;19920;-62
2023/06/01 10:07:12;;;;;;;;;;;;;;;33.74;31.36;100121.38;5055254;28;20512;-62
2023/06/01 10:09:40;;;;;;;;;;;;;;;34.16;31.60;100119.50;5062801;28;19955;-62
2023/06/01 10:12:05;;;;;;;;;;;;;;;34.06;30.53;100115.34;5059597;28;19999;-63
2023/06/01 10:14:32;;;;;;;;;;;;;;;33.91;30.36;100120.03;5053481;28;20007;-62
2023/06/01 10:16:57;;;;;;;;;;;;;;;33.86;31.54;100108.75;5056504;28;19912;-63
2023/06/01 10:19:23;;;;;;;;;;;;;;;34.24;30.90;100115.72;5058436;28;19974;-62
2023/06/01 10:21:48;;;;;;;;;;;;;;;34.28;31.46;100114.28;5048992;28;20650;-61
2023/06/01 10:24:14;;;;;;;;;;;;;;;34.19;31.54;100109.94;5055471;28;19962;-63
2023/06/01 10:26:58;;;;;;;;;;;;;;;34.04;30.46;100112.78;5055037;28;20007;-62
2023/06/01 10:29:24;;;;;;;;;;;;;;;34.25;30.25;100109.16;5060432;28;19936;-62
2023/06/01 10:31:51;;;;;;;;;;;;;;;34.17;30.06;100109.28;5056030;28;19920;-63
2023/06/01 10:34:35;;;;;;;;;;;;;;;34.20;29.35;100106.16;5049844;28;19996;-62
2023/06/01 10:37:01;;;;;;;;;;;;;;;34.59;30.30;100100.97;5054675;28;20044;-63
2023/06/01 10:39:27;;;;;;;;;;;;;;;34.59;29.65;100100.97;5064909;28;19937;-62
2023/06/01 10:41:53;;;;;;;;;;;;;;;34.76;30.35;100095.97;5067921;28;19980;-63
2023/06/01 10:44:37;;;;;;;;;;;;;;;35.10;30.22;100099.63;5068125;28;20619;-62
2023/06/01 10:47:03;;;;;;;;;;;;;;;34.93;30.01;100106.53;5053137;28;19930;-62
2023/06/01 10:49:46;;;;;;;;;;;;;;;34.98;30.81;100098.47;5061636;28;20054;-63
2023/06/01 10:52:35;;;;;;;;;;;;;;;35.18;30.05;100101.34;5050711;28;19967;-62
2023/06/01 10:55:07;;;;;;;;;;;;;;;35.57;31.42;100107.91;5060235;28;19912;-63
2023/06/01 10:57:38;;;;;;;;;;;;;;;35.79;30.52;100095.63;5057975;28;19919;-63
2023/06/01 11:00:13;;;;;;;;;;;;;;;35.97;30.79;100096.94;5049790;28;19946;-63
2023/06/01 11:02:46;;;;;;;;;;;;;;;35.94;28.38;100094.63;5054489;28;20683;-63
2023/06/01 11:05:31;;;;;;;;;;;;;;;35.92;28.99;100093.97;5050753;28;20157;-63
2023/06/01 11:07:56;;;;;;;;;;;;;;;36.14;28.66;100090.81;5049278;28;19912;-63
2023/06/01 11:10:40;;;;;;;;;;;;;;;36.09;27.76;100089.72;5052554;28;20288;-63
2023/06/01 11:13:17;;;;;;;;;;;;;;;36.27;27.51;100087.19;5048674;28;19960;-63
2023/06/01 11:16:03;;;;;;;;;;;;;;;36.34;27.63;100082.53;5058028;28;19912;-63
2023/06/01 11:18:41;;;;;;;;;;;;;;;36.55;28.49;100082.28;5066251;28;19926;-63
2023/06/01 11:21:09;;;;;;;;;;;;;;;36.50;27.33;100082.94;5053286;28;19913;-63
2023/06/01 11:23:34;;;;;;;;;;;;;;;36.66;26.03;100081.63;5053116;28;19991;-63
2023/06/01 11:26:02;;;;;;;;;;;;;;;36.59;26.52;100075.25;5065542;28;20015;-63
2023/06/01 11:28:27;;;;;;;;;;;;;;;36.81;28.57;100074.81;5052062;28;19924;-63
2023/06/01 11:30:53;;;;;;;;;;;;;;;36.99;27.31;100069.44;5065659;28;19913;-63
2023/06/01 11:33:19;;;;;;;;;;;;;;;36.72;25.66;100072.47;5052405;28;19934;-62
2023/06/01 11:35:46;;;;;;;;;;;;;;;36.75;28.06;100060.94;5067809;28;19916;-63
2023/06/01 11:38:11;;;;;;;;;;;;;;;37.05;26.43;100062.16;5064423;28;19932;-62
2023/06/01 11:40:36;;;;;;;;;;;;;;;37.10;24.82;100058.72;5052994;28;19916;-63
2023/06/01 11:43:02;;;;;;;;;;;;;;;37.28;25.42;100059.75;5063915;28;19999;-62
2023/06/01 11:45:28;;;;;;;;;;;;;;;37.27;25.88;100055.25;5064322;28;19956;-62
2023/06/01 11:47:53;;;;;;;;;;;;;;;37.17;24.81;100057.59;5056833;28;19946;-62
2023/06/01 11:50:26;;;;;;;;;;;;;;;36.72;24.87;100064.16;5063176;28;20384;-62
2023/06/01 11:52:52;;;;;;;;;;;;;;;35.79;25.77;100054.09;5053756;28;19956;-62
2023/06/01 11:55:17;;;;;;;;;;;;;;;35.93;26.97;100056.91;5052332;28;20055;-62
2023/06/01 11:57:42;;;;;;;;;;;;;;;35.96;25.85;100051.81;5057094;28;19919;-62
2023/06/01 12:00:12;;;;;;;;;;;;;;;36.35;27.99;100042.66;5052226;28;19920;-62
2023/06/01 12:02:38;;;;;;;;;;;;;;;36.64;26.54;100036.66;5052683;28;19919;-63
2023/06/01 12:05:10;;;;;;;;;;;;;;;36.95;26.80;100036.81;5063167;28;19920;-62
2023/06/01 12:07:46;;;;;;;;;;;;;;;36.93;25.11;100034.25;5067856;28;20304;-62
2023/06/01 12:10:14;;;;;;;;;;;;;;;37.29;25.20;100033.69;5062146;28;19920;-63
2023/06/01 12:12:40;;;;;;;;;;;;;;;37.36;25.80;100040.06;5054419;28;19912;-62
2023/06/01 12:15:06;;;;;;;;;;;;;;;37.24;24.81;100029.81;5064027;28;19919;-62
2023/06/01 12:17:51;;;;;;;;;;;;;;;37.21;24.96;100036.69;5067455;28;20391;-63
2023/06/01 12:20:25;;;;;;;;;;;;;;;36.74;26.24;100032.34;5051408;28;19919;-63
2023/06/01 12:22:50;;;;;;;;;;;;;;;36.68;26.77;100024.03;5056963;28;19920;-63
2023/06/01 12:25:16;;;;;;;;;;;;;;;36.88;26.61;100031.28;5051385;28;20300;-62
2023/06/01 12:27:42;;;;;;;;;;;;;;;37.02;26.68;100032.06;5061925;28;19916;-63
2023/06/01 12:30:19;;;;;;;;;;;;;;;36.85;26.14;100017.81;5051849;28;19916;-62
2023/06/01 12:32:45;;;;;;;;;;;;;;;37.17;25.83;100029.03;5058924;28;19916;-62
2023/06/01 12:35:10;;;;;;;;;;;;;;;37.09;25.76;100021.78;5060036;28;19919;-63